sensor_id;sensor_type;location;lat;lon;timestamp;P1;durP1;ratioP1;P2;durP2;ratioP2
8640;SDS011;4358;42.100;25.222;2023-04-23T00:01:42;6.60;;;4.67;;
8640;SDS011;4358;42.100;25.222;2023-04-23T00:04:10;7.97;;;4.70;;
8640;SDS011;4358;42.100;25.222;2023-04-23T00:06:37;6.50;;;3.97;;
8640;SDS011;4358;42.100;25.222;2023-04-23T00:09:07;5.87;;;4.57;;
8640;SDS011;4358;42.100;25.222;2023-04-23T00:11:38;8.23;;;5.20;;
8640;SDS011;4358;42.100;25.222;2023-04-23T00:14:06;8.07;;;5.03;;
8640;SDS011;4358;42.100;25.222;2023-04-23T00:16:33;8.73;;;4.03;;
8640;SDS011;4358;42.100;25.222;2023-04-23T00:19:00;8.43;;;4.33;;
8640;SDS011;4358;42.100;25.222;2023-04-23T00:21:27;8.77;;;5.33;;
8640;SDS011;4358;42.100;25.222;2023-04-23T00:23:54;12.10;;;4.87;;
8640;SDS011;4358;42.100;25.222;2023-04-23T00:26:22;4.27;;;3.60;;
8640;SDS011;4358;42.100;25.222;2023-04-23T00:28:49;8.63;;;5.03;;
8640;SDS011;4358;42.100;25.222;2023-04-23T00:31:15;5.97;;;4.63;;
8640;SDS011;4358;42.100;25.222;2023-04-23T00:33:42;7.47;;;4.20;;
8640;SDS011;4358;42.100;25.222;2023-04-23T00:36:09;6.83;;;3.80;;
8640;SDS011;4358;42.100;25.222;2023-04-23T00:38:36;4.77;;;3.97;;
8640;SDS011;4358;42.100;25.222;2023-04-23T00:41:03;6.30;;;4.30;;
8640;SDS011;4358;42.100;25.222;2023-04-23T00:43:31;3.97;;;3.57;;
8640;SDS011;4358;42.100;25.222;2023-04-23T00:45:59;9.77;;;4.70;;
8640;SDS011;4358;42.100;25.222;2023-04-23T00:48:26;10.20;;;5.10;;
8640;SDS011;4358;42.100;25.222;2023-04-23T00:50:57;7.20;;;4.13;;
8640;SDS011;4358;42.100;25.222;2023-04-23T00:53:25;9.17;;;3.90;;
8640;SDS011;4358;42.100;25.222;2023-04-23T00:55:52;10.20;;;4.30;;
8640;SDS011;4358;42.100;25.222;2023-04-23T00:58:19;5.47;;;3.97;;
8640;SDS011;4358;42.100;25.222;2023-04-23T01:00:47;9.30;;;4.73;;
8640;SDS011;4358;42.100;25.222;2023-04-23T01:03:16;7.43;;;4.23;;
8640;SDS011;4358;42.100;25.222;2023-04-23T01:05:45;7.10;;;4.20;;
8640;SDS011;4358;42.100;25.222;2023-04-23T01:08:15;6.00;;;4.10;;
8640;SDS011;4358;42.100;25.222;2023-04-23T01:10:43;6.90;;;3.60;;
8640;SDS011;4358;42.100;25.222;2023-04-23T01:13:11;4.60;;;3.60;;
8640;SDS011;4358;42.100;25.222;2023-04-23T01:15:38;7.93;;;4.03;;
8640;SDS011;4358;42.100;25.222;2023-04-23T01:18:06;4.70;;;3.97;;
8640;SDS011;4358;42.100;25.222;2023-04-23T01:20:33;4.30;;;3.60;;
8640;SDS011;4358;42.100;25.222;2023-04-23T01:23:03;7.13;;;4.27;;
8640;SDS011;4358;42.100;25.222;2023-04-23T01:25:30;5.47;;;3.93;;
8640;SDS011;4358;42.100;25.222;2023-04-23T01:27:57;4.90;;;4.03;;
8640;SDS011;4358;42.100;25.222;2023-04-23T01:30:24;6.57;;;4.40;;
8640;SDS011;4358;42.100;25.222;2023-04-23T01:32:53;5.50;;;4.37;;
8640;SDS011;4358;42.100;25.222;2023-04-23T01:35:20;4.80;;;4.27;;
8640;SDS011;4358;42.100;25.222;2023-04-23T01:37:47;4.87;;;4.07;;
8640;SDS011;4358;42.100;25.222;2023-04-23T01:40:18;6.33;;;4.90;;
8640;SDS011;4358;42.100;25.222;2023-04-23T01:42:45;5.23;;;4.70;;
8640;SDS011;4358;42.100;25.222;2023-04-23T01:45:13;6.47;;;4.27;;
8640;SDS011;4358;42.100;25.222;2023-04-23T01:47:41;8.73;;;6.27;;
8640;SDS011;4358;42.100;25.222;2023-04-23T01:50:08;4.23;;;3.73;;
8640;SDS011;4358;42.100;25.222;2023-04-23T01:52:35;5.23;;;3.57;;
8640;SDS011;4358;42.100;25.222;2023-04-23T01:55:02;6.53;;;4.10;;
8640;SDS011;4358;42.100;25.222;2023-04-23T01:57:31;5.70;;;4.10;;
8640;SDS011;4358;42.100;25.222;2023-04-23T02:00:00;4.77;;;4.30;;
8640;SDS011;4358;42.100;25.222;2023-04-23T02:02:32;8.30;;;4.10;;
8640;SDS011;4358;42.100;25.222;2023-04-23T02:05:00;6.00;;;4.43;;
8640;SDS011;4358;42.100;25.222;2023-04-23T02:07:28;5.10;;;3.93;;
8640;SDS011;4358;42.100;25.222;2023-04-23T02:09:56;6.20;;;4.10;;
8640;SDS011;4358;42.100;25.222;2023-04-23T02:12:23;5.90;;;4.53;;
8640;SDS011;4358;42.100;25.222;2023-04-23T02:14:51;8.43;;;4.60;;
8640;SDS011;4358;42.100;25.222;2023-04-23T02:17:18;10.27;;;5.50;;
8640;SDS011;4358;42.100;25.222;2023-04-23T02:19:47;6.40;;;4.93;;
8640;SDS011;4358;42.100;25.222;2023-04-23T02:22:14;6.00;;;4.50;;
8640;SDS011;4358;42.100;25.222;2023-04-23T02:24:41;6.00;;;4.37;;
8640;SDS011;4358;42.100;25.222;2023-04-23T02:27:08;6.63;;;4.23;;
8640;SDS011;4358;42.100;25.222;2023-04-23T02:29:35;5.30;;;4.53;;
8640;SDS011;4358;42.100;25.222;2023-04-23T02:32:04;6.20;;;4.47;;
8640;SDS011;4358;42.100;25.222;2023-04-23T02:34:31;7.17;;;4.50;;
8640;SDS011;4358;42.100;25.222;2023-04-23T02:36:58;8.50;;;4.80;;
8640;SDS011;4358;42.100;25.222;2023-04-23T02:39:25;6.17;;;4.03;;
8640;SDS011;4358;42.100;25.222;2023-04-23T02:41:52;5.13;;;4.07;;
8640;SDS011;4358;42.100;25.222;2023-04-23T02:44:20;6.93;;;4.60;;
8640;SDS011;4358;42.100;25.222;2023-04-23T02:46:47;9.07;;;5.60;;
8640;SDS011;4358;42.100;25.222;2023-04-23T02:49:15;7.33;;;5.43;;
8640;SDS011;4358;42.100;25.222;2023-04-23T02:51:44;7.80;;;5.20;;
8640;SDS011;4358;42.100;25.222;2023-04-23T02:54:11;9.93;;;5.00;;
8640;SDS011;4358;42.100;25.222;2023-04-23T02:56:37;11.40;;;6.63;;
8640;SDS011;4358;42.100;25.222;2023-04-23T02:59:05;7.43;;;6.13;;
8640;SDS011;4358;42.100;25.222;2023-04-23T03:01:32;6.73;;;5.00;;
8640;SDS011;4358;42.100;25.222;2023-04-23T03:03:59;8.73;;;5.57;;
8640;SDS011;4358;42.100;25.222;2023-04-23T03:06:27;8.17;;;5.43;;
8640;SDS011;4358;42.100;25.222;2023-04-23T03:08:55;8.30;;;5.30;;
8640;SDS011;4358;42.100;25.222;2023-04-23T03:11:22;9.10;;;6.30;;
8640;SDS011;4358;42.100;25.222;2023-04-23T03:13:49;8.40;;;5.77;;
8640;SDS011;4358;42.100;25.222;2023-04-23T03:16:16;7.17;;;5.67;;
8640;SDS011;4358;42.100;25.222;2023-04-23T03:18:42;10.57;;;5.77;;
8640;SDS011;4358;42.100;25.222;2023-04-23T03:21:09;6.40;;;5.43;;
8640;SDS011;4358;42.100;25.222;2023-04-23T03:23:38;5.53;;;4.63;;
8640;SDS011;4358;42.100;25.222;2023-04-23T03:26:05;9.37;;;5.10;;
8640;SDS011;4358;42.100;25.222;2023-04-23T03:28:32;5.13;;;4.50;;
8640;SDS011;4358;42.100;25.222;2023-04-23T03:30:59;8.07;;;4.90;;
8640;SDS011;4358;42.100;25.222;2023-04-23T03:33:26;5.53;;;4.37;;
8640;SDS011;4358;42.100;25.222;2023-04-23T03:35:52;11.13;;;4.97;;
8640;SDS011;4358;42.100;25.222;2023-04-23T03:38:19;8.77;;;4.40;;
8640;SDS011;4358;42.100;25.222;2023-04-23T03:40:47;5.80;;;4.20;;
8640;SDS011;4358;42.100;25.222;2023-04-23T03:43:14;5.23;;;4.47;;
8640;SDS011;4358;42.100;25.222;2023-04-23T03:45:41;7.13;;;4.50;;
8640;SDS011;4358;42.100;25.222;2023-04-23T03:48:08;10.27;;;4.80;;
8640;SDS011;4358;42.100;25.222;2023-04-23T03:50:35;9.10;;;5.30;;
8640;SDS011;4358;42.100;25.222;2023-04-23T03:53:04;6.03;;;5.43;;
8640;SDS011;4358;42.100;25.222;2023-04-23T03:55:31;6.77;;;4.77;;
8640;SDS011;4358;42.100;25.222;2023-04-23T03:57:59;5.30;;;4.40;;
8640;SDS011;4358;42.100;25.222;2023-04-23T04:00:28;5.87;;;3.70;;
8640;SDS011;4358;42.100;25.222;2023-04-23T04:02:55;4.17;;;3.77;;
8640;SDS011;4358;42.100;25.222;2023-04-23T04:05:22;5.90;;;3.60;;
8640;SDS011;4358;42.100;25.222;2023-04-23T04:07:49;8.70;;;3.30;;
8640;SDS011;4358;42.100;25.222;2023-04-23T04:10:15;5.50;;;3.50;;
8640;SDS011;4358;42.100;25.222;2023-04-23T04:12:42;4.73;;;3.50;;
8640;SDS011;4358;42.100;25.222;2023-04-23T04:15:13;4.90;;;3.20;;
8640;SDS011;4358;42.100;25.222;2023-04-23T04:17:41;4.90;;;3.43;;
8640;SDS011;4358;42.100;25.222;2023-04-23T04:20:10;5.93;;;3.73;;
8640;SDS011;4358;42.100;25.222;2023-04-23T04:22:37;5.13;;;3.40;;
8640;SDS011;4358;42.100;25.222;2023-04-23T04:25:05;4.67;;;3.33;;
8640;SDS011;4358;42.100;25.222;2023-04-23T04:27:32;4.13;;;3.23;;
8640;SDS011;4358;42.100;25.222;2023-04-23T04:29:59;4.10;;;3.30;;
8640;SDS011;4358;42.100;25.222;2023-04-23T04:32:28;5.87;;;3.33;;
8640;SDS011;4358;42.100;25.222;2023-04-23T04:34:54;6.03;;;3.30;;
8640;SDS011;4358;42.100;25.222;2023-04-23T04:37:22;9.93;;;3.80;;
8640;SDS011;4358;42.100;25.222;2023-04-23T04:39:49;7.00;;;3.90;;
8640;SDS011;4358;42.100;25.222;2023-04-23T04:42:16;7.40;;;3.77;;
8640;SDS011;4358;42.100;25.222;2023-04-23T04:44:43;6.80;;;3.97;;
8640;SDS011;4358;42.100;25.222;2023-04-23T04:47:10;5.67;;;4.40;;
8640;SDS011;4358;42.100;25.222;2023-04-23T04:49:38;9.53;;;4.40;;
8640;SDS011;4358;42.100;25.222;2023-04-23T04:52:05;4.53;;;3.90;;
8640;SDS011;4358;42.100;25.222;2023-04-23T04:54:32;6.80;;;3.50;;
8640;SDS011;4358;42.100;25.222;2023-04-23T04:56:59;7.60;;;3.70;;
8640;SDS011;4358;42.100;25.222;2023-04-23T04:59:26;7.23;;;3.47;;
8640;SDS011;4358;42.100;25.222;2023-04-23T05:01:53;4.90;;;3.60;;
8640;SDS011;4358;42.100;25.222;2023-04-23T05:04:20;9.43;;;3.30;;
8640;SDS011;4358;42.100;25.222;2023-04-23T05:06:48;7.03;;;3.90;;
8640;SDS011;4358;42.100;25.222;2023-04-23T05:09:15;4.50;;;4.03;;
8640;SDS011;4358;42.100;25.222;2023-04-23T05:11:42;8.53;;;3.67;;
8640;SDS011;4358;42.100;25.222;2023-04-23T05:14:09;5.63;;;2.90;;
8640;SDS011;4358;42.100;25.222;2023-04-23T05:16:35;3.13;;;2.73;;
8640;SDS011;4358;42.100;25.222;2023-04-23T05:19:02;5.40;;;3.17;;
8640;SDS011;4358;42.100;25.222;2023-04-23T05:21:29;4.67;;;2.70;;
8640;SDS011;4358;42.100;25.222;2023-04-23T05:23:57;3.10;;;2.40;;
8640;SDS011;4358;42.100;25.222;2023-04-23T05:26:24;5.20;;;2.50;;
8640;SDS011;4358;42.100;25.222;2023-04-23T05:28:51;3.77;;;2.70;;
8640;SDS011;4358;42.100;25.222;2023-04-23T05:31:18;4.80;;;2.70;;
8640;SDS011;4358;42.100;25.222;2023-04-23T05:33:44;4.33;;;2.70;;
8640;SDS011;4358;42.100;25.222;2023-04-23T05:36:11;3.53;;;2.73;;
8640;SDS011;4358;42.100;25.222;2023-04-23T05:38:38;4.63;;;2.50;;
8640;SDS011;4358;42.100;25.222;2023-04-23T05:41:06;3.43;;;2.63;;
8640;SDS011;4358;42.100;25.222;2023-04-23T05:43:33;4.90;;;2.53;;
8640;SDS011;4358;42.100;25.222;2023-04-23T05:46:00;4.33;;;2.30;;
8640;SDS011;4358;42.100;25.222;2023-04-23T05:48:28;3.97;;;2.60;;
8640;SDS011;4358;42.100;25.222;2023-04-23T05:50:55;4.47;;;2.27;;
8640;SDS011;4358;42.100;25.222;2023-04-23T05:53:22;4.67;;;2.67;;
8640;SDS011;4358;42.100;25.222;2023-04-23T05:55:49;6.07;;;2.73;;
8640;SDS011;4358;42.100;25.222;2023-04-23T05:58:17;4.60;;;3.37;;
8640;SDS011;4358;42.100;25.222;2023-04-23T06:00:44;11.57;;;3.60;;
8640;SDS011;4358;42.100;25.222;2023-04-23T06:03:11;4.20;;;2.70;;
8640;SDS011;4358;42.100;25.222;2023-04-23T06:05:38;3.10;;;2.80;;
8640;SDS011;4358;42.100;25.222;2023-04-23T06:08:07;6.83;;;2.63;;
8640;SDS011;4358;42.100;25.222;2023-04-23T06:10:34;2.63;;;2.17;;
8640;SDS011;4358;42.100;25.222;2023-04-23T06:13:01;5.67;;;2.40;;
8640;SDS011;4358;42.100;25.222;2023-04-23T06:15:29;6.30;;;3.13;;
8640;SDS011;4358;42.100;25.222;2023-04-23T06:17:56;8.57;;;3.70;;
8640;SDS011;4358;42.100;25.222;2023-04-23T06:20:23;4.53;;;3.10;;
8640;SDS011;4358;42.100;25.222;2023-04-23T06:22:50;5.53;;;3.37;;
8640;SDS011;4358;42.100;25.222;2023-04-23T06:25:17;3.93;;;3.47;;
8640;SDS011;4358;42.100;25.222;2023-04-23T06:27:44;4.23;;;3.27;;
8640;SDS011;4358;42.100;25.222;2023-04-23T06:30:11;4.53;;;3.60;;
8640;SDS011;4358;42.100;25.222;2023-04-23T06:32:39;10.73;;;4.10;;
8640;SDS011;4358;42.100;25.222;2023-04-23T06:35:09;4.23;;;3.40;;
8640;SDS011;4358;42.100;25.222;2023-04-23T06:37:36;4.90;;;3.27;;
8640;SDS011;4358;42.100;25.222;2023-04-23T06:40:04;10.00;;;3.10;;
8640;SDS011;4358;42.100;25.222;2023-04-23T06:42:32;4.57;;;3.37;;
8640;SDS011;4358;42.100;25.222;2023-04-23T06:44:58;8.10;;;3.03;;
8640;SDS011;4358;42.100;25.222;2023-04-23T06:47:28;5.77;;;3.30;;
8640;SDS011;4358;42.100;25.222;2023-04-23T06:49:56;4.60;;;3.27;;
8640;SDS011;4358;42.100;25.222;2023-04-23T06:52:24;3.90;;;3.23;;
8640;SDS011;4358;42.100;25.222;2023-04-23T06:54:50;5.73;;;3.50;;
8640;SDS011;4358;42.100;25.222;2023-04-23T06:57:17;4.33;;;3.37;;
8640;SDS011;4358;42.100;25.222;2023-04-23T06:59:44;6.33;;;3.20;;
8640;SDS011;4358;42.100;25.222;2023-04-23T07:02:11;5.03;;;2.60;;
8640;SDS011;4358;42.100;25.222;2023-04-23T07:04:38;8.30;;;3.00;;
8640;SDS011;4358;42.100;25.222;2023-04-23T07:07:07;5.07;;;3.10;;
8640;SDS011;4358;42.100;25.222;2023-04-23T07:09:34;13.60;;;4.63;;
8640;SDS011;4358;42.100;25.222;2023-04-23T07:12:01;5.80;;;3.17;;
8640;SDS011;4358;42.100;25.222;2023-04-23T07:14:27;2.80;;;2.50;;
8640;SDS011;4358;42.100;25.222;2023-04-23T07:16:54;5.03;;;2.53;;
8640;SDS011;4358;42.100;25.222;2023-04-23T07:19:21;4.87;;;3.40;;
8640;SDS011;4358;42.100;25.222;2023-04-23T07:21:48;7.03;;;3.33;;
8640;SDS011;4358;42.100;25.222;2023-04-23T07:24:16;5.43;;;3.13;;
8640;SDS011;4358;42.100;25.222;2023-04-23T07:26:43;4.97;;;2.83;;
8640;SDS011;4358;42.100;25.222;2023-04-23T07:29:10;4.97;;;2.90;;
8640;SDS011;4358;42.100;25.222;2023-04-23T07:31:38;6.33;;;2.60;;
8640;SDS011;4358;42.100;25.222;2023-04-23T07:34:06;4.27;;;2.97;;
8640;SDS011;4358;42.100;25.222;2023-04-23T07:36:34;3.10;;;2.70;;
8640;SDS011;4358;42.100;25.222;2023-04-23T07:39:00;7.00;;;2.33;;
8640;SDS011;4358;42.100;25.222;2023-04-23T07:41:30;7.87;;;2.43;;
8640;SDS011;4358;42.100;25.222;2023-04-23T07:43:57;6.90;;;2.70;;
8640;SDS011;4358;42.100;25.222;2023-04-23T07:46:25;3.87;;;2.40;;
8640;SDS011;4358;42.100;25.222;2023-04-23T07:48:52;3.67;;;2.37;;
8640;SDS011;4358;42.100;25.222;2023-04-23T07:51:19;3.60;;;2.20;;
8640;SDS011;4358;42.100;25.222;2023-04-23T07:53:50;7.53;;;2.60;;
8640;SDS011;4358;42.100;25.222;2023-04-23T07:56:18;2.83;;;2.13;;
8640;SDS011;4358;42.100;25.222;2023-04-23T07:58:48;4.63;;;2.03;;
8640;SDS011;4358;42.100;25.222;2023-04-23T08:01:15;3.97;;;2.03;;
8640;SDS011;4358;42.100;25.222;2023-04-23T08:03:42;3.63;;;2.10;;
8640;SDS011;4358;42.100;25.222;2023-04-23T08:06:09;3.70;;;2.30;;
8640;SDS011;4358;42.100;25.222;2023-04-23T08:08:36;3.23;;;2.53;;
8640;SDS011;4358;42.100;25.222;2023-04-23T08:11:04;5.63;;;2.60;;
8640;SDS011;4358;42.100;25.222;2023-04-23T08:13:31;5.20;;;2.50;;
8640;SDS011;4358;42.100;25.222;2023-04-23T08:15:59;4.27;;;2.00;;
8640;SDS011;4358;42.100;25.222;2023-04-23T08:18:26;2.13;;;1.90;;
8640;SDS011;4358;42.100;25.222;2023-04-23T08:20:53;5.40;;;2.63;;
8640;SDS011;4358;42.100;25.222;2023-04-23T08:23:20;4.10;;;2.50;;
8640;SDS011;4358;42.100;25.222;2023-04-23T08:25:49;3.73;;;2.20;;
8640;SDS011;4358;42.100;25.222;2023-04-23T08:28:16;4.63;;;2.40;;
8640;SDS011;4358;42.100;25.222;2023-04-23T08:30:44;4.03;;;2.20;;
8640;SDS011;4358;42.100;25.222;2023-04-23T08:33:12;4.47;;;2.10;;
8640;SDS011;4358;42.100;25.222;2023-04-23T08:35:39;3.13;;;2.17;;
8640;SDS011;4358;42.100;25.222;2023-04-23T08:38:06;5.67;;;2.30;;
8640;SDS011;4358;42.100;25.222;2023-04-23T08:40:33;4.37;;;2.43;;
8640;SDS011;4358;42.100;25.222;2023-04-23T08:43:08;2.87;;;2.10;;
8640;SDS011;4358;42.100;25.222;2023-04-23T08:45:38;3.03;;;2.03;;
8640;SDS011;4358;42.100;25.222;2023-04-23T08:48:06;4.67;;;1.73;;
8640;SDS011;4358;42.100;25.222;2023-04-23T08:50:37;4.53;;;1.80;;
8640;SDS011;4358;42.100;25.222;2023-04-23T08:53:08;1.93;;;1.60;;
8640;SDS011;4358;42.100;25.222;2023-04-23T08:55:35;4.07;;;1.90;;
8640;SDS011;4358;42.100;25.222;2023-04-23T08:58:02;3.30;;;1.70;;
8640;SDS011;4358;42.100;25.222;2023-04-23T09:00:30;6.80;;;2.17;;
8640;SDS011;4358;42.100;25.222;2023-04-23T09:02:58;2.70;;;2.10;;
8640;SDS011;4358;42.100;25.222;2023-04-23T09:05:25;3.23;;;1.90;;
8640;SDS011;4358;42.100;25.222;2023-04-23T09:07:53;3.67;;;1.87;;
8640;SDS011;4358;42.100;25.222;2023-04-23T09:10:20;5.13;;;2.37;;
8640;SDS011;4358;42.100;25.222;2023-04-23T09:12:47;3.03;;;2.00;;
8640;SDS011;4358;42.100;25.222;2023-04-23T09:15:15;3.57;;;1.97;;
8640;SDS011;4358;42.100;25.222;2023-04-23T09:17:43;3.47;;;1.90;;
8640;SDS011;4358;42.100;25.222;2023-04-23T09:20:11;2.20;;;1.67;;
8640;SDS011;4358;42.100;25.222;2023-04-23T09:22:40;2.87;;;1.93;;
8640;SDS011;4358;42.100;25.222;2023-04-23T09:25:09;4.40;;;2.03;;
8640;SDS011;4358;42.100;25.222;2023-04-23T09:27:37;4.03;;;2.03;;
8640;SDS011;4358;42.100;25.222;2023-04-23T09:30:06;5.10;;;2.03;;
8640;SDS011;4358;42.100;25.222;2023-04-23T09:32:35;4.13;;;2.03;;
8640;SDS011;4358;42.100;25.222;2023-04-23T09:35:03;3.60;;;2.40;;
8640;SDS011;4358;42.100;25.222;2023-04-23T09:37:31;3.70;;;1.90;;
8640;SDS011;4358;42.100;25.222;2023-04-23T09:39:58;4.50;;;2.13;;
8640;SDS011;4358;42.100;25.222;2023-04-23T09:42:27;2.20;;;1.70;;
8640;SDS011;4358;42.100;25.222;2023-04-23T09:44:54;2.73;;;1.70;;
8640;SDS011;4358;42.100;25.222;2023-04-23T09:47:22;2.93;;;2.17;;
8640;SDS011;4358;42.100;25.222;2023-04-23T09:49:49;2.77;;;2.10;;
8640;SDS011;4358;42.100;25.222;2023-04-23T09:52:16;2.27;;;1.87;;
8640;SDS011;4358;42.100;25.222;2023-04-23T09:54:44;3.27;;;2.13;;
8640;SDS011;4358;42.100;25.222;2023-04-23T09:57:11;3.50;;;2.20;;
8640;SDS011;4358;42.100;25.222;2023-04-23T09:59:39;5.30;;;2.07;;
8640;SDS011;4358;42.100;25.222;2023-04-23T10:02:06;6.37;;;2.50;;
8640;SDS011;4358;42.100;25.222;2023-04-23T10:04:34;3.43;;;2.20;;
8640;SDS011;4358;42.100;25.222;2023-04-23T10:07:02;2.50;;;1.83;;
8640;SDS011;4358;42.100;25.222;2023-04-23T10:09:32;3.10;;;1.97;;
8640;SDS011;4358;42.100;25.222;2023-04-23T10:12:01;2.27;;;2.07;;
8640;SDS011;4358;42.100;25.222;2023-04-23T10:14:28;5.43;;;2.13;;
8640;SDS011;4358;42.100;25.222;2023-04-23T10:16:58;5.40;;;2.50;;
8640;SDS011;4358;42.100;25.222;2023-04-23T10:19:26;4.10;;;2.10;;
8640;SDS011;4358;42.100;25.222;2023-04-23T10:21:54;3.23;;;1.97;;
8640;SDS011;4358;42.100;25.222;2023-04-23T10:24:26;2.83;;;2.30;;
8640;SDS011;4358;42.100;25.222;2023-04-23T10:26:56;3.67;;;2.20;;
8640;SDS011;4358;42.100;25.222;2023-04-23T10:29:25;3.70;;;2.30;;
8640;SDS011;4358;42.100;25.222;2023-04-23T10:31:54;5.90;;;2.50;;
8640;SDS011;4358;42.100;25.222;2023-04-23T10:34:25;7.20;;;2.73;;
8640;SDS011;4358;42.100;25.222;2023-04-23T10:36:54;3.00;;;2.40;;
8640;SDS011;4358;42.100;25.222;2023-04-23T10:39:27;2.33;;;2.13;;
8640;SDS011;4358;42.100;25.222;2023-04-23T10:41:57;3.27;;;2.43;;
8640;SDS011;4358;42.100;25.222;2023-04-23T10:44:30;3.63;;;2.23;;
8640;SDS011;4358;42.100;25.222;2023-04-23T10:46:58;4.57;;;2.47;;
8640;SDS011;4358;42.100;25.222;2023-04-23T10:49:30;3.07;;;2.30;;
8640;SDS011;4358;42.100;25.222;2023-04-23T10:51:57;2.90;;;2.30;;
8640;SDS011;4358;42.100;25.222;2023-04-23T10:54:29;5.30;;;2.30;;
8640;SDS011;4358;42.100;25.222;2023-04-23T10:56:57;4.17;;;2.00;;
8640;SDS011;4358;42.100;25.222;2023-04-23T10:59:27;2.67;;;2.20;;
8640;SDS011;4358;42.100;25.222;2023-04-23T11:01:58;7.33;;;2.07;;
8640;SDS011;4358;42.100;25.222;2023-04-23T11:04:34;6.20;;;2.83;;
8640;SDS011;4358;42.100;25.222;2023-04-23T11:07:05;4.97;;;2.40;;
8640;SDS011;4358;42.100;25.222;2023-04-23T11:09:36;4.13;;;2.37;;
8640;SDS011;4358;42.100;25.222;2023-04-23T11:12:05;4.60;;;2.20;;
8640;SDS011;4358;42.100;25.222;2023-04-23T11:14:34;3.93;;;2.13;;
8640;SDS011;4358;42.100;25.222;2023-04-23T11:17:02;5.70;;;2.20;;
8640;SDS011;4358;42.100;25.222;2023-04-23T11:19:35;3.80;;;2.60;;
8640;SDS011;4358;42.100;25.222;2023-04-23T11:22:03;4.33;;;2.30;;
8640;SDS011;4358;42.100;25.222;2023-04-23T11:24:32;2.43;;;2.10;;
8640;SDS011;4358;42.100;25.222;2023-04-23T11:27:04;3.67;;;2.00;;
8640;SDS011;4358;42.100;25.222;2023-04-23T11:29:32;4.33;;;2.40;;
8640;SDS011;4358;42.100;25.222;2023-04-23T11:31:59;2.30;;;2.00;;
8640;SDS011;4358;42.100;25.222;2023-04-23T11:34:26;5.17;;;2.23;;
8640;SDS011;4358;42.100;25.222;2023-04-23T11:36:55;4.13;;;2.40;;
8640;SDS011;4358;42.100;25.222;2023-04-23T11:39:24;4.80;;;2.30;;
8640;SDS011;4358;42.100;25.222;2023-04-23T11:41:51;3.50;;;1.80;;
8640;SDS011;4358;42.100;25.222;2023-04-23T11:44:18;2.60;;;2.10;;
8640;SDS011;4358;42.100;25.222;2023-04-23T11:46:46;2.40;;;2.10;;
8640;SDS011;4358;42.100;25.222;2023-04-23T11:49:13;3.47;;;2.47;;
8640;SDS011;4358;42.100;25.222;2023-04-23T11:51:41;4.30;;;2.23;;
8640;SDS011;4358;42.100;25.222;2023-04-23T11:54:10;2.60;;;2.10;;
8640;SDS011;4358;42.100;25.222;2023-04-23T11:56:38;5.23;;;2.20;;
8640;SDS011;4358;42.100;25.222;2023-04-23T11:59:06;4.13;;;2.30;;
8640;SDS011;4358;42.100;25.222;2023-04-23T12:01:40;4.63;;;2.03;;
8640;SDS011;4358;42.100;25.222;2023-04-23T12:04:14;3.37;;;2.00;;
8640;SDS011;4358;42.100;25.222;2023-04-23T12:06:42;4.03;;;2.00;;
8640;SDS011;4358;42.100;25.222;2023-04-23T12:09:12;2.37;;;2.07;;
8640;SDS011;4358;42.100;25.222;2023-04-23T12:11:41;4.07;;;2.33;;
8640;SDS011;4358;42.100;25.222;2023-04-23T12:14:10;3.03;;;2.27;;
8640;SDS011;4358;42.100;25.222;2023-04-23T12:16:39;3.87;;;2.10;;
8640;SDS011;4358;42.100;25.222;2023-04-23T12:19:07;5.10;;;2.27;;
8640;SDS011;4358;42.100;25.222;2023-04-23T12:21:34;3.47;;;2.07;;
8640;SDS011;4358;42.100;25.222;2023-04-23T12:24:14;5.70;;;2.10;;
8640;SDS011;4358;42.100;25.222;2023-04-23T12:26:41;2.47;;;2.13;;
8640;SDS011;4358;42.100;25.222;2023-04-23T12:29:08;2.70;;;2.07;;
8640;SDS011;4358;42.100;25.222;2023-04-23T12:31:37;3.83;;;2.30;;
8640;SDS011;4358;42.100;25.222;2023-04-23T12:34:05;6.33;;;1.93;;
8640;SDS011;4358;42.100;25.222;2023-04-23T12:36:34;4.83;;;2.30;;
8640;SDS011;4358;42.100;25.222;2023-04-23T12:42:03;2.63;;;2.10;;
8640;SDS011;4358;42.100;25.222;2023-04-23T12:44:31;4.43;;;2.10;;
8640;SDS011;4358;42.100;25.222;2023-04-23T12:47:00;3.43;;;2.53;;
8640;SDS011;4358;42.100;25.222;2023-04-23T12:49:29;2.87;;;2.03;;
8640;SDS011;4358;42.100;25.222;2023-04-23T12:51:56;5.10;;;1.80;;
8640;SDS011;4358;42.100;25.222;2023-04-23T12:54:25;3.30;;;2.00;;
8640;SDS011;4358;42.100;25.222;2023-04-23T12:56:55;1.90;;;1.80;;
8640;SDS011;4358;42.100;25.222;2023-04-23T12:59:22;2.00;;;1.90;;
8640;SDS011;4358;42.100;25.222;2023-04-23T13:01:49;2.47;;;2.10;;
8640;SDS011;4358;42.100;25.222;2023-04-23T13:04:16;2.30;;;1.87;;
8640;SDS011;4358;42.100;25.222;2023-04-23T13:06:43;2.90;;;2.00;;
8640;SDS011;4358;42.100;25.222;2023-04-23T13:09:10;2.50;;;2.17;;
8640;SDS011;4358;42.100;25.222;2023-04-23T13:11:37;2.97;;;2.00;;
8640;SDS011;4358;42.100;25.222;2023-04-23T13:14:08;3.07;;;2.13;;
8640;SDS011;4358;42.100;25.222;2023-04-23T13:16:35;7.57;;;2.30;;
8640;SDS011;4358;42.100;25.222;2023-04-23T13:19:02;2.70;;;2.13;;
8640;SDS011;4358;42.100;25.222;2023-04-23T13:21:29;2.70;;;2.23;;
8640;SDS011;4358;42.100;25.222;2023-04-23T13:23:56;3.23;;;2.10;;
8640;SDS011;4358;42.100;25.222;2023-04-23T13:26:23;2.87;;;2.20;;
8640;SDS011;4358;42.100;25.222;2023-04-23T13:28:50;4.53;;;2.10;;
8640;SDS011;4358;42.100;25.222;2023-04-23T13:31:19;3.30;;;2.43;;
8640;SDS011;4358;42.100;25.222;2023-04-23T13:33:45;5.20;;;2.60;;
8640;SDS011;4358;42.100;25.222;2023-04-23T13:36:12;2.83;;;2.20;;
8640;SDS011;4358;42.100;25.222;2023-04-23T13:38:39;2.73;;;2.40;;
8640;SDS011;4358;42.100;25.222;2023-04-23T13:41:06;2.70;;;2.47;;
8640;SDS011;4358;42.100;25.222;2023-04-23T13:43:32;5.47;;;2.93;;
8640;SDS011;4358;42.100;25.222;2023-04-23T13:45:59;4.60;;;2.83;;
8640;SDS011;4358;42.100;25.222;2023-04-23T13:48:28;3.20;;;2.67;;
8640;SDS011;4358;42.100;25.222;2023-04-23T13:50:56;2.70;;;2.30;;
8640;SDS011;4358;42.100;25.222;2023-04-23T13:53:23;3.10;;;2.43;;
8640;SDS011;4358;42.100;25.222;2023-04-23T13:55:51;4.13;;;2.70;;
8640;SDS011;4358;42.100;25.222;2023-04-23T13:58:18;3.50;;;2.53;;
8640;SDS011;4358;42.100;25.222;2023-04-23T14:00:46;3.03;;;2.60;;
8640;SDS011;4358;42.100;25.222;2023-04-23T14:03:12;2.97;;;2.67;;
8640;SDS011;4358;42.100;25.222;2023-04-23T14:05:41;6.97;;;3.10;;
8640;SDS011;4358;42.100;25.222;2023-04-23T14:08:08;3.13;;;2.53;;
8640;SDS011;4358;42.100;25.222;2023-04-23T14:10:35;4.17;;;2.77;;
8640;SDS011;4358;42.100;25.222;2023-04-23T14:13:02;3.73;;;2.70;;
8640;SDS011;4358;42.100;25.222;2023-04-23T14:15:29;4.30;;;2.60;;
8640;SDS011;4358;42.100;25.222;2023-04-23T14:17:56;3.43;;;2.30;;
8640;SDS011;4358;42.100;25.222;2023-04-23T14:20:23;4.23;;;2.33;;
8640;SDS011;4358;42.100;25.222;2023-04-23T14:22:55;4.43;;;2.63;;
8640;SDS011;4358;42.100;25.222;2023-04-23T14:25:28;2.60;;;2.40;;
8640;SDS011;4358;42.100;25.222;2023-04-23T14:27:56;6.57;;;2.40;;
8640;SDS011;4358;42.100;25.222;2023-04-23T14:30:27;3.27;;;2.33;;
8640;SDS011;4358;42.100;25.222;2023-04-23T14:32:54;2.67;;;2.47;;
8640;SDS011;4358;42.100;25.222;2023-04-23T14:35:22;3.87;;;2.80;;
8640;SDS011;4358;42.100;25.222;2023-04-23T14:37:49;3.07;;;2.77;;
8640;SDS011;4358;42.100;25.222;2023-04-23T14:40:17;5.10;;;2.67;;
8640;SDS011;4358;42.100;25.222;2023-04-23T14:42:45;4.80;;;2.60;;
8640;SDS011;4358;42.100;25.222;2023-04-23T14:45:13;3.20;;;2.53;;
8640;SDS011;4358;42.100;25.222;2023-04-23T14:47:42;3.20;;;2.87;;
8640;SDS011;4358;42.100;25.222;2023-04-23T14:50:12;4.60;;;2.67;;
8640;SDS011;4358;42.100;25.222;2023-04-23T14:52:41;4.13;;;2.90;;
8640;SDS011;4358;42.100;25.222;2023-04-23T14:55:09;3.40;;;2.80;;
8640;SDS011;4358;42.100;25.222;2023-04-23T14:57:37;4.70;;;2.60;;
8640;SDS011;4358;42.100;25.222;2023-04-23T15:00:04;2.90;;;2.60;;
8640;SDS011;4358;42.100;25.222;2023-04-23T15:02:32;2.73;;;2.27;;
8640;SDS011;4358;42.100;25.222;2023-04-23T15:04:59;3.23;;;2.90;;
8640;SDS011;4358;42.100;25.222;2023-04-23T15:07:26;6.13;;;3.03;;